Time;durP1;ratioP1;P1;durP2;ratioP2;P2;SDS_P1;SDS_P2;PMS_P1;PMS_P2;Temp;Humidity;BMP_temperature;BMP_pressure;BME280_temperature;BME280_humidity;BME280_pressure;Samples;Min_cycle;Max_cycle;Signal;HPM_P1;HPM_P2
2021/04/08 00:02:17;;;;;;;0.75;0.20;;;1.30;85.70;;;;;;5115536;28;20152;-74
2021/04/08 00:04:43;;;;;;;0.35;0.13;;;1.30;85.80;;;;;;5115274;28;20374;-73
2021/04/08 00:07:08;;;;;;;0.10;0.10;;;1.30;85.70;;;;;;5115039;28;20065;-74
2021/04/08 00:09:34;;;;;;;0.45;0.20;;;1.30;85.70;;;;;;5115578;28;20043;-74
2021/04/08 00:12:00;;;;;;;0.95;0.20;;;1.30;85.80;;;;;;5115141;28;20042;-74
2021/04/08 00:14:26;;;;;;;0.10;0.10;;;1.30;85.80;;;;;;5115055;28;20519;-74
2021/04/08 00:16:53;;;;;;;0.22;0.10;;;1.30;85.80;;;;;;5078231;28;20040;-73
2021/04/08 00:19:19;;;;;;;0.55;0.30;;;1.30;85.90;;;;;;5115173;28;20493;-73
2021/04/08 00:21:46;;;;;;;0.10;0.10;;;1.30;85.90;;;;;;5097032;28;20027;-73
2021/04/08 00:24:12;;;;;;;0.65;0.20;;;1.10;85.80;;;;;;5115049;28;20481;-74
2021/04/08 00:26:38;;;;;;;0.45;0.20;;;1.30;86.00;;;;;;5114771;28;20081;-73
2021/04/08 00:29:03;;;;;;;0.15;0.10;;;1.20;86.00;;;;;;5115085;28;20052;-73
2021/04/08 00:31:30;;;;;;;0.50;0.08;;;1.10;86.00;;;;;;5096534;28;20040;-73
2021/04/08 00:33:55;;;;;;;0.20;0.10;;;1.20;86.10;;;;;;5096591;28;20131;-73
2021/04/08 00:36:21;;;;;;;1.27;0.20;;;1.20;86.10;;;;;;5114994;28;20501;-73
2021/04/08 00:38:47;;;;;;;0.28;0.20;;;1.20;86.10;;;;;;5114894;28;20088;-74
2021/04/08 00:41:13;;;;;;;0.95;0.20;;;1.20;86.00;;;;;;5114959;28;20077;-74
2021/04/08 00:43:38;;;;;;;0.60;0.13;;;1.10;85.90;;;;;;5114640;28;20482;-73
2021/04/08 00:46:04;;;;;;;0.65;0.30;;;1.10;85.90;;;;;;5115108;28;20039;-73
2021/04/08 00:48:30;;;;;;;1.23;0.32;;;1.10;85.90;;;;;;5114749;28;20138;-73
2021/04/08 00:50:56;;;;;;;0.70;0.10;;;1.10;85.90;;;;;;5114899;28;20532;-73
2021/04/08 00:53:25;;;;;;;0.52;0.20;;;1.10;86.00;;;;;;5114532;28;20047;-73
2021/04/08 00:55:52;;;;;;;0.20;0.10;;;1.10;86.10;;;;;;5114384;28;20071;-73
2021/04/08 00:58:19;;;;;;;0.10;0.10;;;1.10;86.10;;;;;;5114928;28;20047;-73
2021/04/08 01:00:46;;;;;;;0.00;0.00;;;1.10;86.20;;;;;;5114571;28;20039;-74
2021/04/08 01:03:13;;;;;;;1.83;0.10;;;1.10;86.20;;;;;;5114266;28;20457;-73
2021/04/08 01:05:39;;;;;;;0.50;0.10;;;1.00;86.20;;;;;;5114326;28;20075;-73
2021/04/08 01:08:06;;;;;;;0.10;0.10;;;1.00;86.20;;;;;;5114547;28;20084;-73
2021/04/08 01:10:32;;;;;;;0.10;0.10;;;1.00;86.20;;;;;;5114899;28;20049;-73
2021/04/08 01:13:01;;;;;;;0.60;0.30;;;1.00;86.20;;;;;;5114167;28;20493;-73
2021/04/08 01:15:27;;;;;;;0.03;0.03;;;1.00;86.30;;;;;;5114055;28;20470;-73
2021/04/08 01:18:21;;;;;;;0.20;0.10;;;1.00;86.90;;;;;;5114079;28;20481;-73
2021/04/08 01:21:02;;;;;;;0.93;0.30;;;1.00;86.30;;;;;;5113928;28;20093;-73
2021/04/08 01:24:00;;;;;;;1.25;0.13;;;0.90;86.20;;;;;;5114178;28;20080;-73
2021/04/08 01:26:57;;;;;;;0.20;0.20;;;1.00;86.30;;;;;;5113057;28;20044;-73
2021/04/08 01:29:43;;;;;;;0.32;0.10;;;1.00;86.30;;;;;;5113985;28;20035;-73
2021/04/08 01:32:10;;;;;;;0.40;0.28;;;1.00;86.20;;;;;;5113839;28;20127;-73
2021/04/08 01:34:40;;;;;;;0.43;0.20;;;1.00;86.20;;;;;;5113636;28;20047;-73
2021/04/08 01:37:09;;;;;;;1.17;0.22;;;1.00;86.20;;;;;;5113932;28;20396;-73
2021/04/08 01:39:38;;;;;;;0.43;0.30;;;1.00;86.10;;;;;;5113978;28;20051;-73
2021/04/08 01:42:04;;;;;;;0.43;0.17;;;1.10;86.10;;;;;;5113962;28;20083;-73
2021/04/08 01:44:31;;;;;;;0.88;0.30;;;1.00;86.00;;;;;;5095927;28;20040;-73
2021/04/08 01:47:03;;;;;;;0.88;0.30;;;1.10;86.00;;;;;;5113381;28;20062;-74
2021/04/08 01:49:33;;;;;;;0.40;0.20;;;1.10;86.00;;;;;;5113724;28;20040;-73
2021/04/08 01:52:00;;;;;;;0.10;0.10;;;1.10;86.00;;;;;;5114057;28;20126;-73
2021/04/08 01:54:30;;;;;;;0.20;0.20;;;1.10;85.90;;;;;;5095378;28;20051;-73
2021/04/08 01:57:00;;;;;;;0.08;0.08;;;1.20;85.90;;;;;;5113412;28;20040;-73
2021/04/08 01:59:27;;;;;;;1.10;0.30;;;1.20;85.90;;;;;;5094412;28;20047;-73
2021/04/08 02:01:56;;;;;;;0.20;0.20;;;1.20;85.90;;;;;;5114001;28;20035;-73
2021/04/08 02:04:24;;;;;;;0.70;0.30;;;1.20;85.80;;;;;;5113816;28;20047;-73
2021/04/08 02:06:50;;;;;;;0.35;0.20;;;1.20;85.80;;;;;;5113512;28;20044;-73
2021/04/08 02:09:17;;;;;;;0.60;0.20;;;1.30;85.80;;;;;;5113481;28;20515;-74
2021/04/08 02:11:47;;;;;;;0.32;0.15;;;1.20;85.70;;;;;;5113345;28;20032;-74
2021/04/08 02:14:14;;;;;;;0.40;0.22;;;1.30;85.70;;;;;;5112708;28;20398;-73
2021/04/08 02:16:45;;;;;;;0.10;0.10;;;1.40;85.70;;;;;;5113590;28;20423;-73
2021/04/08 02:19:12;;;;;;;0.77;0.20;;;1.40;85.60;;;;;;5093862;28;20040;-73
2021/04/08 02:21:40;;;;;;;1.25;0.30;;;1.40;85.40;;;;;;5113132;28;20112;-73
2021/04/08 02:24:06;;;;;;;0.43;0.20;;;1.50;85.40;;;;;;5094830;28;20490;-73
2021/04/08 02:26:32;;;;;;;1.85;0.30;;;1.50;85.40;;;;;;5094888;28;20028;-73
2021/04/08 02:29:00;;;;;;;0.30;0.20;;;1.50;85.30;;;;;;5113494;28;20039;-73
2021/04/08 02:31:28;;;;;;;0.90;0.20;;;1.60;85.30;;;;;;5094860;28;20122;-73
2021/04/08 02:33:54;;;;;;;1.17;0.30;;;1.60;85.10;;;;;;5112965;28;20046;-73
2021/04/08 02:36:20;;;;;;;1.05;0.20;;;1.60;85.10;;;;;;5113209;28;20044;-73
2021/04/08 02:38:46;;;;;;;0.50;0.30;;;1.60;85.00;;;;;;5094661;28;20051;-73
2021/04/08 02:41:12;;;;;;;0.38;0.25;;;1.70;85.00;;;;;;5113120;28;20081;-73
2021/04/08 02:43:38;;;;;;;0.70;0.20;;;1.70;85.00;;;;;;5113165;28;20035;-74
2021/04/08 02:46:04;;;;;;;0.17;0.15;;;1.70;85.10;;;;;;5113345;28;20173;-73
2021/04/08 02:48:32;;;;;;;0.43;0.17;;;1.70;85.00;;;;;;5113065;28;20039;-73
2021/04/08 02:51:05;;;;;;;0.25;0.10;;;1.80;85.10;;;;;;5113162;28;20051;-73
2021/04/08 02:53:55;;;;;;;0.22;0.17;;;1.70;85.00;;;;;;5095590;28;20050;-73
2021/04/08 02:56:39;;;;;;;0.38;0.20;;;1.80;85.10;;;;;;5112804;28;20066;-73
2021/04/08 02:59:14;;;;;;;0.75;0.10;;;1.80;85.10;;;;;;5112924;28;20428;-73
2021/04/08 03:01:51;;;;;;;0.40;0.30;;;1.80;85.10;;;;;;5112920;28;20473;-73
2021/04/08 03:04:20;;;;;;;1.15;0.10;;;1.80;85.10;;;;;;5112999;28;20039;-74
2021/04/08 03:06:49;;;;;;;0.10;0.10;;;1.80;85.10;;;;;;5112743;28;20043;-73
2021/04/08 03:09:15;;;;;;;0.30;0.20;;;1.80;85.10;;;;;;5112418;28;20378;-73
2021/04/08 03:11:41;;;;;;;0.20;0.10;;;1.80;85.20;;;;;;5092763;28;20067;-73
2021/04/08 03:14:10;;;;;;;0.10;0.10;;;1.80;85.20;;;;;;5112832;28;20097;-73
2021/04/08 03:16:39;;;;;;;0.15;0.10;;;1.80;85.30;;;;;;5112614;28;20052;-73
2021/04/08 03:19:10;;;;;;;0.17;0.17;;;1.80;85.40;;;;;;5112304;28;20092;-73
2021/04/08 03:21:36;;;;;;;0.63;0.10;;;1.90;85.50;;;;;;5093852;28;20101;-74
2021/04/08 03:24:03;;;;;;;0.00;0.00;;;1.80;85.40;;;;;;5112705;28;20036;-73
2021/04/08 03:26:30;;;;;;;0.10;0.10;;;1.80;85.40;;;;;;5116167;28;20047;-73
2021/04/08 03:28:56;;;;;;;0.60;0.20;;;1.80;85.40;;;;;;5116126;28;20050;-73
2021/04/08 03:31:23;;;;;;;0.10;0.10;;;1.80;85.40;;;;;;5097282;28;20504;-73
2021/04/08 03:33:51;;;;;;;0.30;0.20;;;1.80;85.50;;;;;;5096983;28;20036;-73
2021/04/08 03:36:18;;;;;;;0.20;0.00;;;1.80;85.50;;;;;;5116279;28;20155;-73
2021/04/08 03:38:45;;;;;;;0.30;0.17;;;1.80;85.50;;;;;;5115629;28;20047;-73
2021/04/08 03:41:12;;;;;;;0.55;0.10;;;1.80;85.50;;;;;;5097654;28;20047;-74
2021/04/08 03:43:38;;;;;;;0.47;0.20;;;1.80;85.50;;;;;;5116122;28;20051;-73
2021/04/08 03:46:06;;;;;;;0.25;0.10;;;1.80;85.60;;;;;;5115657;28;20482;-74
2021/04/08 03:48:33;;;;;;;0.30;0.30;;;1.80;85.60;;;;;;5115593;28;20473;-74
2021/04/08 03:51:01;;;;;;;0.08;0.08;;;1.80;85.60;;;;;;5115863;28;20058;-74
2021/04/08 03:53:28;;;;;;;0.00;0.00;;;1.90;85.70;;;;;;5115883;28;20044;-73
2021/04/08 03:55:56;;;;;;;0.52;0.10;;;1.80;85.60;;;;;;5115316;28;20681;-74
2021/04/08 03:58:23;;;;;;;0.52;0.10;;;1.80;85.60;;;;;;5115234;28;20070;-73
2021/04/08 04:00:50;;;;;;;0.15;0.15;;;1.90;85.70;;;;;;5115327;28;20089;-73
2021/04/08 04:03:17;;;;;;;0.10;0.00;;;1.90;85.70;;;;;;5115636;28;20039;-74
2021/04/08 04:05:44;;;;;;;0.10;0.10;;;1.80;85.70;;;;;;5115715;28;20071;-74
2021/04/08 04:08:11;;;;;;;0.28;0.10;;;1.80;85.70;;;;;;5097483;28;20039;-74
2021/04/08 04:10:40;;;;;;;0.10;0.10;;;1.90;85.80;;;;;;5097462;28;20062;-74
2021/04/08 04:13:07;;;;;;;0.20;0.10;;;1.90;85.80;;;;;;5115787;28;20039;-74
2021/04/08 04:15:35;;;;;;;0.00;0.00;;;1.90;85.80;;;;;;5115198;28;20044;-73
2021/04/08 04:18:07;;;;;;;0.50;0.10;;;1.90;85.80;;;;;;5115334;28;20031;-74
2021/04/08 04:20:32;;;;;;;;;;;1.90;85.90;;;;;;5116038;28;20032;-74
2021/04/08 04:22:58;;;;;;;0.10;0.10;;;1.90;85.80;;;;;;5096502;28;19918;-73
2021/04/08 04:25:24;;;;;;;0.20;0.20;;;1.90;85.80;;;;;;5115348;28;20042;-74
2021/04/08 04:27:50;;;;;;;0.00;0.00;;;1.90;85.80;;;;;;5115478;28;20046;-74
2021/04/08 04:30:16;;;;;;;0.10;0.10;;;1.90;85.80;;;;;;5114992;28;20039;-74
2021/04/08 04:32:43;;;;;;;0.10;0.10;;;1.90;85.90;;;;;;5115030;28;20047;-74
2021/04/08 04:35:09;;;;;;;0.10;0.10;;;1.90;85.90;;;;;;5115565;28;20092;-74
2021/04/08 04:37:35;;;;;;;0.00;0.00;;;2.00;86.00;;;;;;5114257;28;20073;-74
2021/04/08 04:40:02;;;;;;;0.10;0.10;;;2.00;85.90;;;;;;5096536;28;20047;-74
2021/04/08 04:42:28;;;;;;;0.00;0.00;;;1.90;85.80;;;;;;5096942;28;20498;-74
2021/04/08 04:44:53;;;;;;;0.20;0.10;;;1.90;85.80;;;;;;5115412;28;20055;-73
2021/04/08 04:47:19;;;;;;;0.10;0.10;;;2.00;85.90;;;;;;5115398;28;20032;-74
2021/04/08 04:49:48;;;;;;;0.75;0.20;;;2.00;85.90;;;;;;5114860;28;20127;-74
2021/04/08 04:52:14;;;;;;;0.03;0.03;;;2.00;85.80;;;;;;5114978;28;20569;-74
2021/04/08 04:54:40;;;;;;;0.10;0.10;;;2.00;85.90;;;;;;5114465;28;20039;-74
2021/04/08 04:57:06;;;;;;;0.10;0.10;;;2.00;85.80;;;;;;5096483;28;20040;-74
2021/04/08 04:59:32;;;;;;;2.38;0.22;;;2.00;85.90;;;;;;5114962;28;20089;-73
2021/04/08 05:01:57;;;;;;;0.57;0.20;;;2.00;85.80;;;;;;5114749;28;20081;-74
2021/04/08 05:04:23;;;;;;;0.20;0.10;;;2.00;85.80;;;;;;5114793;28;20049;-73
2021/04/08 05:06:49;;;;;;;0.10;0.10;;;2.10;85.90;;;;;;5115264;28;20039;-74
2021/04/08 05:09:15;;;;;;;0.20;0.20;;;2.10;85.80;;;;;;5114540;28;20126;-74
2021/04/08 05:11:40;;;;;;;0.10;0.10;;;2.00;85.80;;;;;;5115011;28;20143;-74
2021/04/08 05:14:06;;;;;;;0.15;0.10;;;2.10;85.80;;;;;;5114641;28;20039;-74
2021/04/08 05:16:32;;;;;;;0.65;0.10;;;2.10;85.80;;;;;;5114456;28;20040;-75
2021/04/08 05:18:58;;;;;;;0.73;0.10;;;2.10;85.90;;;;;;5096221;28;20035;-74
2021/04/08 05:21:23;;;;;;;0.00;0.00;;;2.20;85.90;;;;;;5114245;28;20131;-75
2021/04/08 05:23:49;;;;;;;0.00;0.00;;;2.10;85.80;;;;;;5114884;28;20089;-73
2021/04/08 05:26:15;;;;;;;0.10;0.10;;;2.10;85.80;;;;;;5096228;28;20042;-73
2021/04/08 05:28:41;;;;;;;0.10;0.10;;;2.20;85.90;;;;;;5114118;28;20062;-73
2021/04/08 05:31:06;;;;;;;0.28;0.20;;;2.20;85.90;;;;;;5114513;28;20074;-73
2021/04/08 05:33:32;;;;;;;0.50;0.17;;;2.20;85.90;;;;;;5114621;28;20370;-72
2021/04/08 05:35:58;;;;;;;0.10;0.10;;;2.20;85.90;;;;;;5095828;28;20051;-72
2021/04/08 05:38:23;;;;;;;0.68;0.20;;;2.20;85.90;;;;;;5093698;28;20066;-72
2021/04/08 05:40:50;;;;;;;0.30;0.10;;;2.20;85.80;;;;;;5114072;28;20040;-72
2021/04/08 05:43:16;;;;;;;0.32;0.10;;;2.30;85.80;;;;;;5113688;28;20031;-72
2021/04/08 05:45:44;;;;;;;0.40;0.20;;;2.30;85.80;;;;;;5114544;28;20051;-72
2021/04/08 05:48:10;;;;;;;1.60;0.30;;;2.30;85.70;;;;;;5113486;28;20119;-72
2021/04/08 05:50:35;;;;;;;0.35;0.17;;;2.40;85.70;;;;;;5114192;28;20496;-72
2021/04/08 05:53:01;;;;;;;0.20;0.20;;;2.40;85.60;;;;;;5113921;28;20550;-72
2021/04/08 05:55:27;;;;;;;0.88;0.30;;;2.40;85.50;;;;;;5113561;28;20039;-72
2021/04/08 05:57:52;;;;;;;0.73;0.30;;;2.40;85.50;;;;;;5114219;28;20481;-72
2021/04/08 06:00:19;;;;;;;0.70;0.30;;;2.50;85.50;;;;;;5113661;28;20058;-73
2021/04/08 06:02:44;;;;;;;1.05;0.43;;;2.50;85.40;;;;;;5113698;28;20058;-73
2021/04/08 06:05:11;;;;;;;1.10;0.60;;;2.60;85.40;;;;;;5113658;28;20039;-73
2021/04/08 06:07:36;;;;;;;1.02;0.40;;;2.60;85.30;;;;;;5114115;28;20452;-73
2021/04/08 06:10:03;;;;;;;0.88;0.30;;;2.60;85.20;;;;;;5113416;28;20035;-73
2021/04/08 06:12:29;;;;;;;0.40;0.30;;;2.70;85.20;;;;;;5113638;28;20051;-73
2021/04/08 06:14:56;;;;;;;0.70;0.40;;;2.60;85.10;;;;;;5094400;28;20073;-73
2021/04/08 06:17:21;;;;;;;0.30;0.30;;;2.60;85.10;;;;;;5113430;28;20051;-73
2021/04/08 06:19:47;;;;;;;0.20;0.20;;;2.70;85.00;;;;;;5112884;28;20039;-73
2021/04/08 06:22:13;;;;;;;0.52;0.30;;;2.70;85.00;;;;;;5112860;28;20036;-73
2021/04/08 06:24:40;;;;;;;0.63;0.30;;;2.80;84.90;;;;;;5113184;28;20404;-73
2021/04/08 06:27:06;;;;;;;1.08;0.30;;;2.90;84.90;;;;;;5113189;28;20073;-74
2021/04/08 06:29:32;;;;;;;0.65;0.52;;;2.80;84.80;;;;;;5076567;28;20067;-73
2021/04/08 06:31:58;;;;;;;0.55;0.40;;;2.80;84.80;;;;;;5078161;28;20152;-73
2021/04/08 06:34:24;;;;;;;1.30;0.57;;;2.80;84.80;;;;;;5112934;28;20043;-73
2021/04/08 06:36:49;;;;;;;0.50;0.40;;;2.80;84.80;;;;;;5112714;28;20444;-73
2021/04/08 06:39:15;;;;;;;0.90;0.38;;;2.90;84.80;;;;;;5112984;28;20035;-73
2021/04/08 06:41:41;;;;;;;0.63;0.40;;;2.80;84.80;;;;;;5112910;28;20073;-73
2021/04/08 06:44:09;;;;;;;1.38;0.60;;;2.80;84.80;;;;;;5113260;28;20117;-73
2021/04/08 06:46:37;;;;;;;0.38;0.30;;;2.80;85.50;;;;;;5113466;28;20036;-74
2021/04/08 06:49:33;;;;;;;0.43;0.38;;;2.80;84.90;;;;;;5112969;28;20397;-73
2021/04/08 06:52:00;;;;;;;0.32;0.25;;;2.90;84.90;;;;;;5094705;28;20039;-74
2021/04/08 06:54:27;;;;;;;0.47;0.45;;;2.90;84.80;;;;;;5113284;28;20071;-75
2021/04/08 06:56:53;;;;;;;1.48;0.30;;;2.90;84.80;;;;;;5112859;28;20036;-74
2021/04/08 06:59:19;;;;;;;0.43;0.40;;;3.00;84.90;;;;;;5111907;28;20036;-75
2021/04/08 07:01:46;;;;;;;0.73;0.40;;;3.00;84.90;;;;;;5077420;28;20035;-75
2021/04/08 07:04:13;;;;;;;0.70;0.40;;;3.10;84.90;;;;;;5113142;28;20051;-74
2021/04/08 07:06:39;;;;;;;0.63;0.20;;;3.20;84.70;;;;;;5112638;28;20040;-75
2021/04/08 07:09:09;;;;;;;1.55;0.40;;;3.20;84.40;;;;;;5112931;28;20042;-76
2021/04/08 07:11:35;;;;;;;2.78;0.52;;;3.40;84.30;;;;;;5094908;28;20489;-73
2021/04/08 07:14:03;;;;;;;2.08;0.50;;;3.50;84.10;;;;;;5112809;28;20032;-74
2021/04/08 07:16:30;;;;;;;0.60;0.38;;;3.60;83.80;;;;;;5113047;28;20055;-74
2021/04/08 07:18:58;;;;;;;0.98;0.60;;;3.70;83.60;;;;;;5112884;28;20071;-73
2021/04/08 07:21:29;;;;;;;0.75;0.60;;;3.80;83.30;;;;;;5112368;28;20043;-73
2021/04/08 07:24:10;;;;;;;1.23;0.60;;;4.00;83.00;;;;;;5094664;28;20040;-74
2021/04/08 07:27:05;;;;;;;1.55;0.70;;;4.10;82.90;;;;;;5112554;28;20128;-75
2021/04/08 07:29:47;;;;;;;1.08;0.70;;;4.20;82.70;;;;;;5112905;28;20093;-75
2021/04/08 07:32:21;;;;;;;1.58;0.50;;;4.30;82.50;;;;;;5112736;28;20449;-76
2021/04/08 07:34:50;;;;;;;0.70;0.50;;;4.40;82.20;;;;;;5112598;28;20036;-74
2021/04/08 07:37:22;;;;;;;1.05;0.60;;;4.50;81.90;;;;;;5112329;28;20055;-75
2021/04/08 07:39:48;;;;;;;1.63;0.70;;;4.70;81.60;;;;;;5112067;28;20132;-77
2021/04/08 07:42:16;;;;;;;0.85;0.68;;;4.70;81.50;;;;;;5112317;28;20138;-76
2021/04/08 07:44:53;;;;;;;0.93;0.52;;;4.90;81.30;;;;;;5094548;28;20044;-77
2021/04/08 07:47:37;;;;;;;1.48;0.73;;;5.10;81.10;;;;;;5112145;28;20481;-76
2021/04/08 07:50:16;;;;;;;0.70;0.60;;;5.20;80.80;;;;;;5112608;28;20148;-80
2021/04/08 07:52:46;;;;;;;1.55;0.68;;;5.40;81.30;;;;;;5048932;28;20496;-77
2021/04/08 07:55:16;;;;;;;1.35;0.70;;;5.40;80.30;;;;;;5049802;28;20205;-76
2021/04/08 07:57:52;;;;;;;0.93;0.65;;;5.50;80.10;;;;;;5049293;28;20045;-77
2021/04/08 08:00:38;;;;;;;1.67;0.88;;;5.40;80.00;;;;;;5052797;28;20037;-77
2021/04/08 08:03:10;;;;;;;1.80;0.80;;;5.40;80.00;;;;;;5035795;28;20045;-79
2021/04/08 08:05:41;;;;;;;1.52;1.00;;;5.50;80.10;;;;;;5029543;28;20041;-75
2021/04/08 08:08:10;;;;;;;1.70;0.88;;;5.40;80.00;;;;;;5017077;28;20042;-77
2021/04/08 08:10:39;;;;;;;1.20;0.80;;;5.50;80.10;;;;;;5030517;28;20123;-78
2021/04/08 08:13:08;;;;;;;0.80;0.65;;;5.50;80.40;;;;;;5032878;28;20092;-76
2021/04/08 08:15:40;;;;;;;1.13;0.82;;;5.60;80.10;;;;;;5032798;28;20485;-76
2021/04/08 08:18:05;;;;;;;2.55;1.00;;;5.70;80.10;;;;;;5032876;28;20475;-75
2021/04/08 08:20:32;;;;;;;1.48;0.80;;;5.70;79.80;;;;;;5032643;28;20052;-77
2021/04/08 08:22:57;;;;;;;1.63;1.00;;;5.80;79.70;;;;;;5050595;28;20035;-75
2021/04/08 08:25:28;;;;;;;1.42;0.80;;;5.90;79.60;;;;;;5115226;28;20401;-75
2021/04/08 08:27:56;;;;;;;1.33;0.80;;;6.10;79.40;;;;;;5098327;28;20035;-76
2021/04/08 08:30:51;;;;;;;1.88;1.00;;;6.30;79.20;;;;;;5097020;28;20447;-78
2021/04/08 08:33:23;;;;;;;1.52;1.02;;;6.40;78.90;;;;;;5086309;28;20039;-78
2021/04/08 08:35:48;;;;;;;2.40;0.90;;;6.60;78.50;;;;;;5115190;28;20055;-77
2021/04/08 08:38:18;;;;;;;0.85;0.77;;;6.70;78.20;;;;;;5115534;28;20477;-77
2021/04/08 08:40:46;;;;;;;1.63;1.00;;;6.80;78.20;;;;;;5115035;28;20059;-75
2021/04/08 08:43:17;;;;;;;1.20;0.85;;;6.90;77.90;;;;;;5096592;28;20102;-75
2021/04/08 08:45:43;;;;;;;2.72;0.90;;;7.00;77.50;;;;;;5096516;28;20085;-76
2021/04/08 08:48:19;;;;;;;2.88;1.00;;;7.20;77.50;;;;;;5115341;28;20203;-77
2021/04/08 08:50:48;;;;;;;2.85;0.90;;;7.20;77.10;;;;;;5115308;28;20108;-78
2021/04/08 08:53:15;;;;;;;1.83;1.00;;;7.30;76.90;;;;;;5063539;28;20043;-77
2021/04/08 08:55:42;;;;;;;0.98;0.80;;;7.50;76.80;;;;;;5115772;28;20043;-78
2021/04/08 08:58:18;;;;;;;1.73;0.90;;;7.70;76.50;;;;;;5080165;28;20036;-77
2021/04/08 09:00:44;;;;;;;1.88;0.93;;;7.60;75.70;;;;;;5081165;28;20035;-76
2021/04/08 09:03:12;;;;;;;2.75;1.00;;;7.50;75.80;;;;;;5095085;28;20519;-79
2021/04/08 09:05:38;;;;;;;2.45;1.20;;;7.30;75.80;;;;;;5111350;28;20047;-73
2021/04/08 09:08:12;;;;;;;2.67;1.30;;;7.10;75.70;;;;;;5112589;28;20035;-74
2021/04/08 09:10:41;;;;;;;3.22;1.30;;;6.90;75.80;;;;;;5114281;28;20049;-77
2021/04/08 09:13:07;;;;;;;2.92;1.40;;;6.90;76.10;;;;;;5096265;28;20032;-76
2021/04/08 09:15:36;;;;;;;2.50;1.40;;;6.80;75.80;;;;;;5114393;28;20039;-75
2021/04/08 09:18:08;;;;;;;1.73;1.20;;;6.80;75.50;;;;;;5114444;28;20038;-76
2021/04/08 09:20:35;;;;;;;2.53;1.30;;;7.00;75.60;;;;;;5079321;28;20031;-76
2021/04/08 09:23:06;;;;;;;1.80;1.17;;;6.90;75.00;;;;;;5113295;28;20031;-75
2021/04/08 09:25:37;;;;;;;2.17;1.25;;;7.00;74.70;;;;;;5114895;28;20389;-76
2021/04/08 09:28:07;;;;;;;2.22;1.35;;;7.10;74.40;;;;;;5079836;28;20049;-75
2021/04/08 09:30:56;;;;;;;2.03;1.45;;;7.10;74.10;;;;;;5115590;28;20145;-74
2021/04/08 09:33:54;;;;;;;2.08;1.10;;;7.20;73.80;;;;;;5114386;28;20131;-76
2021/04/08 09:36:41;;;;;;;1.95;1.15;;;7.30;73.60;;;;;;5098636;28;20043;-75
2021/04/08 09:39:25;;;;;;;1.35;0.90;;;7.30;73.20;;;;;;5096040;28;20031;-72
2021/04/08 09:41:57;;;;;;;2.00;1.08;;;7.50;73.40;;;;;;5113910;28;20508;-72
2021/04/08 09:44:23;;;;;;;;;;;7.70;73.30;;;;;;5114146;28;20122;-72
2021/04/08 09:46:55;;;;;;;1.45;0.82;;;7.90;72.80;;;;;;5113774;28;19935;-73
2021/04/08 09:49:44;;;;;;;2.33;1.25;;;7.90;72.60;;;;;;5114293;28;20035;-75
2021/04/08 09:52:11;;;;;;;1.42;1.10;;;8.20;72.10;;;;;;5114057;28;20035;-74
2021/04/08 09:54:55;;;;;;;1.45;1.00;;;8.40;71.60;;;;;;5113637;28;20047;-75
2021/04/08 09:57:38;;;;;;;2.75;1.10;;;8.50;71.10;;;;;;5093708;28;20089;-73
2021/04/08 10:00:10;;;;;;;2.28;1.20;;;8.50;70.70;;;;;;5113743;28;20375;-77
2021/04/08 10:02:35;;;;;;;;;;;8.50;70.60;;;;;;5114224;28;20128;-74
2021/04/08 10:05:05;;;;;;;2.80;1.50;;;8.40;70.60;;;;;;5113538;28;19954;-75
2021/04/08 10:07:45;;;;;;;3.08;1.58;;;8.40;70.40;;;;;;5113720;28;20047;-75
2021/04/08 10:10:11;;;;;;;3.17;1.50;;;8.30;70.30;;;;;;5113637;28;20047;-73
2021/04/08 10:12:37;;;;;;;2.17;1.30;;;8.30;70.20;;;;;;5113509;28;20524;-73
2021/04/08 10:15:03;;;;;;;2.80;1.20;;;8.30;70.20;;;;;;5113208;28;20104;-76
2021/04/08 10:17:37;;;;;;;2.95;1.63;;;8.40;70.10;;;;;;5113979;28;20043;-73
2021/04/08 10:20:06;;;;;;;2.22;1.30;;;8.40;69.70;;;;;;5113053;28;20502;-74
2021/04/08 10:22:40;;;;;;;3.17;1.50;;;8.40;69.90;;;;;;5113223;28;20516;-75
2021/04/08 10:25:07;;;;;;;2.20;1.67;;;8.50;69.40;;;;;;5113490;28;20040;-74
2021/04/08 10:27:33;;;;;;;2.75;1.65;;;8.50;69.20;;;;;;5113130;28;20467;-74
2021/04/08 10:29:59;;;;;;;4.55;2.28;;;8.60;69.10;;;;;;5094696;28;20531;-74
2021/04/08 10:32:36;;;;;;;2.88;1.60;;;8.50;68.90;;;;;;5113724;28;20044;-75
2021/04/08 10:35:03;;;;;;;3.30;1.90;;;8.40;68.50;;;;;;5112973;28;20047;-73
2021/04/08 10:37:29;;;;;;;2.08;1.52;;;8.40;68.40;;;;;;5113062;28;20044;-74
2021/04/08 10:39:54;;;;;;;2.70;1.80;;;8.40;68.50;;;;;;5113236;28;20047;-77
2021/04/08 10:42:22;;;;;;;2.97;1.90;;;8.50;68.20;;;;;;5094837;28;20046;-74
2021/04/08 10:44:51;;;;;;;3.88;1.90;;;8.50;67.90;;;;;;5112835;28;20036;-73
2021/04/08 10:47:20;;;;;;;3.22;1.90;;;8.40;67.80;;;;;;5114780;28;20095;-76
2021/04/08 10:49:57;;;;;;;3.47;2.00;;;8.40;67.70;;;;;;5083273;28;20032;-77
2021/04/08 10:52:25;;;;;;;3.45;1.88;;;8.50;67.50;;;;;;5113763;28;20440;-73
2021/04/08 10:54:54;;;;;;;3.45;1.95;;;8.40;67.50;;;;;;5112963;28;20127;-74
2021/04/08 10:57:21;;;;;;;3.00;1.83;;;8.40;67.30;;;;;;5112883;28;20069;-73
2021/04/08 10:59:49;;;;;;;2.35;1.65;;;8.50;66.80;;;;;;5095027;28;20071;-75
2021/04/08 11:02:19;;;;;;;2.75;1.58;;;8.50;66.80;;;;;;5112826;28;20043;-74
2021/04/08 11:04:45;;;;;;;2.47;1.83;;;8.60;66.60;;;;;;5112679;28;20035;-76
2021/04/08 11:07:11;;;;;;;3.22;1.90;;;8.50;66.00;;;;;;5112968;28;20043;-72
2021/04/08 11:09:36;;;;;;;3.65;1.70;;;8.50;66.00;;;;;;5093573;28;20153;-73
2021/04/08 11:12:17;;;;;;;4.32;1.98;;;8.50;66.10;;;;;;5093273;28;20442;-74
2021/04/08 11:14:55;;;;;;;3.72;1.92;;;8.50;65.70;;;;;;5094400;28;20118;-74
2021/04/08 11:17:23;;;;;;;4.47;1.77;;;8.50;65.50;;;;;;5112703;28;20084;-75
2021/04/08 11:19:50;;;;;;;2.95;1.80;;;8.50;65.50;;;;;;5112678;28;20059;-74
2021/04/08 11:22:18;;;;;;;3.05;1.67;;;8.60;65.40;;;;;;5077696;28;20392;-75
2021/04/08 11:24:46;;;;;;;3.08;1.70;;;8.60;65.30;;;;;;5112541;28;20443;-75
2021/04/08 11:27:12;;;;;;;3.25;2.13;;;8.60;65.20;;;;;;5112938;28;20043;-72
2021/04/08 11:29:39;;;;;;;4.05;2.17;;;8.70;64.50;;;;;;5112337;28;20051;-73
2021/04/08 11:32:09;;;;;;;2.95;1.80;;;8.60;64.40;;;;;;5112447;28;20046;-73
2021/04/08 11:34:45;;;;;;;4.05;2.00;;;8.70;64.50;;;;;;5112842;28;20122;-73
2021/04/08 11:37:16;;;;;;;4.10;2.20;;;8.80;64.80;;;;;;5112405;28;20054;-73
2021/04/08 11:39:44;;;;;;;2.78;1.77;;;8.80;63.90;;;;;;5094047;28;20051;-74
2021/04/08 11:42:30;;;;;;;3.55;1.88;;;8.80;63.90;;;;;;5112116;28;20374;-73
2021/04/08 11:44:56;;;;;;;3.67;2.10;;;8.70;63.80;;;;;;5112359;28;20052;-74
2021/04/08 11:47:24;;;;;;;3.45;1.80;;;8.70;63.60;;;;;;5115346;28;20507;-74
2021/04/08 11:49:54;;;;;;;3.67;2.33;;;8.70;63.60;;;;;;5116036;28;20401;-75
2021/04/08 11:52:22;;;;;;;4.40;2.17;;;8.70;63.50;;;;;;5081382;28;20062;-74
2021/04/08 11:55:01;;;;;;;3.42;2.00;;;8.70;63.50;;;;;;5115833;28;20508;-74
2021/04/08 11:57:28;;;;;;;3.72;2.10;;;8.70;63.50;;;;;;5115436;28;20043;-74
2021/04/08 12:00:07;;;;;;;3.83;2.30;;;8.70;63.30;;;;;;5115933;28;20039;-76
2021/04/08 12:02:36;;;;;;;3.25;2.20;;;8.60;63.20;;;;;;5097015;28;20180;-74
2021/04/08 12:05:08;;;;;;;3.50;2.20;;;8.50;63.20;;;;;;5115589;28;20100;-74
2021/04/08 12:07:49;;;;;;;3.65;2.10;;;8.50;63.20;;;;;;5115508;28;20399;-75
2021/04/08 12:10:25;;;;;;;3.25;2.05;;;8.50;63.10;;;;;;5115575;28;20085;-74
2021/04/08 12:12:53;;;;;;;2.58;1.70;;;8.60;63.20;;;;;;5115981;28;20055;-74
2021/04/08 12:15:37;;;;;;;4.32;2.22;;;8.60;63.10;;;;;;5115330;28;20131;-76
2021/04/08 12:18:11;;;;;;;3.40;2.13;;;8.70;62.80;;;;;;5115324;28;20088;-75
2021/04/08 12:20:37;;;;;;;2.38;1.75;;;8.80;62.70;;;;;;5115650;28;20104;-75
2021/04/08 12:23:19;;;;;;;3.67;2.30;;;8.80;62.70;;;;;;5115311;28;20483;-73
2021/04/08 12:25:51;;;;;;;4.88;3.00;;;8.90;62.30;;;;;;5115446;28;20083;-72
2021/04/08 12:28:20;;;;;;;3.72;2.47;;;8.80;61.90;;;;;;5097393;28;20069;-72
2021/04/08 12:30:47;;;;;;;3.75;2.10;;;8.90;62.00;;;;;;5116055;28;20044;-72
2021/04/08 12:33:17;;;;;;;3.83;2.45;;;8.90;61.90;;;;;;5115160;28;20151;-72
2021/04/08 12:35:44;;;;;;;4.40;2.40;;;8.90;61.80;;;;;;5115307;28;20036;-73
2021/04/08 12:38:10;;;;;;;5.25;2.42;;;8.90;61.60;;;;;;5114691;28;20089;-72
2021/04/08 12:40:36;;;;;;;3.58;2.33;;;8.90;61.40;;;;;;5114324;28;20493;-72
2021/04/08 12:43:02;;;;;;;4.55;2.88;;;8.90;61.50;;;;;;5116023;28;20047;-73
2021/04/08 12:45:27;;;;;;;4.90;2.80;;;8.80;61.20;;;;;;5114036;28;20496;-74
2021/04/08 12:47:53;;;;;;;6.50;3.15;;;8.70;61.20;;;;;;5114760;28;20500;-72
2021/04/08 12:50:19;;;;;;;4.03;2.90;;;8.60;61.30;;;;;;5096411;28;20032;-73
2021/04/08 12:52:45;;;;;;;6.57;3.53;;;8.60;61.40;;;;;;5097720;28;20488;-74
2021/04/08 12:55:11;;;;;;;4.57;2.85;;;8.60;61.20;;;;;;5118176;28;20394;-74
2021/04/08 12:57:38;;;;;;;5.25;3.05;;;8.80;61.20;;;;;;5114081;28;20055;-75
2021/04/08 13:00:06;;;;;;;7.00;3.50;;;8.90;61.00;;;;;;5115512;28;20597;-73
2021/04/08 13:02:31;;;;;;;5.22;2.42;;;8.90;60.70;;;;;;5114408;28;20032;-74
2021/04/08 13:04:57;;;;;;;4.95;3.03;;;9.00;60.60;;;;;;5095501;28;20055;-72
2021/04/08 13:07:23;;;;;;;5.28;2.88;;;8.90;60.50;;;;;;5114578;28;20045;-72
2021/04/08 13:09:49;;;;;;;4.97;3.15;;;8.80;60.30;;;;;;5116026;28;20071;-72